Kimball, Ohio
Current Conditions -  °F | °C
As of 11:13 AM on Tuesday 21 Oct 2014 (Local Time) from KPCW Reporting Station
Overcast Overcast  
Wind Chill: 43°   Ceiling: 2100
Heat Index: 48°   Visibility: 10mi
Dew Point: 43°   Wind: 13mph
Humidity: 82%   Direction: 10°N
Pressure: 29.98"   Gusts: NA
Location:  41.2282°N, 82.706°W
Report Text: KPCW 211513Z AUTO 01011KT 10SM OVC021 09/06 A2998 RMK AO2 $
Loading
Personal Weather Stations






























Interactive Weather Map
Tropical Storm Tracking
New forecast layout! Learn more

10-Day Weather Forecast

Advertisements
Track Severe Weather on mobile